Time,TemperatureF,DewpointF,PressureIn,WindDirection,WindDirectionDegrees,WindSpeedMPH,WindSpeedGustMPH,Humidity,HourlyPrecipIn,Conditions,Clouds,dailyrainin,SoftwareType,DateUTC
2013-08-02 00:01:00,63.1,61.6,29.90,SW,221,0.0,1.0,95,0.00,,,0.25,Wunderground v.1.15,2013-08-02 04:01:00,
2013-08-02 00:02:00,63.1,61.6,29.90,SW,221,0.0,0.0,95,0.00,,,0.00,Wunderground v.1.15,2013-08-02 04:02:00,
2013-08-02 00:03:00,63.1,61.6,29.90,SW,221,0.0,0.0,95,0.00,,,0.00,Wunderground v.1.15,2013-08-02 04:03:00,
2013-08-02 00:04:00,63.1,61.6,29.90,SW,221,0.0,0.0,95,0.00,,,0.00,Wunderground v.1.15,2013-08-02 04:04:00,
2013-08-02 00:10:00,62.9,61.4,29.90,SW,221,0.0,0.0,95,0.00,,,0.00,Wunderground v.1.15,2013-08-02 04:10:00,
2013-08-02 00:16:00,62.7,61.2,29.91,SW,221,0.0,0.0,95,0.00,,,0.00,Wunderground v.1.15,2013-08-02 04:16:00,
2013-08-02 00:18:00,62.7,61.2,29.91,SW,221,0.0,0.0,95,0.00,,,0.00,Wunderground v.1.15,2013-08-02 04:18:00,
2013-08-02 00:24:00,62.7,61.2,29.91,SW,221,0.0,0.0,95,0.00,,,0.00,Wunderground v.1.15,2013-08-02 04:24:00,
2013-08-02 00:29:00,62.9,61.4,29.91,SW,221,0.0,0.0,95,0.00,,,0.00,Wunderground v.1.15,2013-08-02 04:29:00,
2013-08-02 00:35:00,62.7,61.2,29.91,SW,221,0.0,0.0,95,0.00,,,0.00,Wunderground v.1.15,2013-08-02 04:35:00,
2013-08-02 00:40:00,62.6,61.1,29.91,SW,221,0.0,0.0,95,0.00,,,0.00,Wunderground v.1.15,2013-08-02 04:40:00,
2013-08-02 00:46:00,62.4,60.9,29.91,SW,221,0.0,0.0,95,0.00,,,0.00,Wunderground v.1.15,2013-08-02 04:46:00,
2013-08-02 00:51:00,62.4,61.2,29.91,SW,221,0.0,0.0,96,0.00,,,0.00,Wunderground v.1.15,2013-08-02 04:51:00,
2013-08-02 00:57:00,62.3,61.1,29.91,SW,221,0.0,0.0,96,0.00,,,0.00,Wunderground v.1.15,2013-08-02 04:57:00,
2013-08-02 01:03:00,62.1,60.9,29.90,SW,221,0.0,0.0,96,0.00,,,0.00,Wunderground v.1.15,2013-08-02 05:03:00,
2013-08-02 01:08:00,62.1,60.9,29.90,SW,221,0.0,0.0,96,0.00,,,0.00,Wunderground v.1.15,2013-08-02 05:08:00,
2013-08-02 01:14:00,62.1,60.9,29.90,SW,221,0.0,0.0,96,0.00,,,0.00,Wunderground v.1.15,2013-08-02 05:14:00,
2013-08-02 01:19:00,62.1,60.9,29.92,SW,221,0.0,0.0,96,0.00,,,0.00,Wunderground v.1.15,2013-08-02 05:19:00,
2013-08-02 01:25:00,61.6,60.2,29.92,SW,221,0.0,0.0,95,0.00,,,0.00,Wunderground v.1.15,2013-08-02 05:25:00,
2013-08-02 01:31:00,61.5,60.3,29.92,SW,221,0.0,0.0,96,0.00,,,0.00,Wunderground v.1.15,2013-08-02 05:31:00,
2013-08-02 01:37:00,61.5,60.3,29.92,SW,221,0.0,0.0,96,0.00,,,0.00,Wunderground v.1.15,2013-08-02 05:37:00,
2013-08-02 01:43:00,61.6,60.4,29.92,SW,221,0.0,0.0,96,0.00,,,0.00,Wunderground v.1.15,2013-08-02 05:43:00,
2013-08-02 01:48:00,61.6,60.4,29.91,SW,221,0.0,0.0,96,0.00,,,0.00,Wunderground v.1.15,2013-08-02 05:48:00,
2013-08-02 01:54:00,61.8,60.6,29.91,SW,221,0.0,0.0,96,0.00,,,0.00,Wunderground v.1.15,2013-08-02 05:54:00,
2013-08-02 02:00:00,61.8,60.6,29.91,SW,221,0.0,0.0,96,0.00,,,0.00,Wunderground v.1.15,2013-08-02 06:00:00,
2013-08-02 02:05:00,61.8,60.6,29.91,SW,221,0.0,0.0,96,0.00,,,0.00,Wunderground v.1.15,2013-08-02 06:05:00,
2013-08-02 02:12:00,61.8,60.6,29.91,SW,221,0.0,0.0,96,0.00,,,0.00,Wunderground v.1.15,2013-08-02 06:12:00,
2013-08-02 02:18:00,61.6,60.4,29.91,SW,221,0.0,0.0,96,0.00,,,0.00,Wunderground v.1.15,2013-08-02 06:18:00,
2013-08-02 02:24:00,61.6,60.4,29.91,SW,221,0.0,0.0,96,0.00,,,0.00,Wunderground v.1.15,2013-08-02 06:24:00,
2013-08-02 02:29:00,61.6,60.4,29.91,SW,221,0.0,0.0,96,0.00,,,0.00,Wunderground v.1.15,2013-08-02 06:29:00,
2013-08-02 02:35:00,61.6,60.4,29.90,SW,221,0.0,0.0,96,0.00,,,0.00,Wunderground v.1.15,2013-08-02 06:35:00,
2013-08-02 02:41:00,61.6,60.4,29.90,SW,221,0.0,0.0,96,0.00,,,0.00,Wunderground v.1.15,2013-08-02 06:41:00,
2013-08-02 02:47:00,61.8,60.6,29.89,SW,221,0.0,0.0,96,0.00,,,0.00,Wunderground v.1.15,2013-08-02 06:47:00,
2013-08-02 02:53:00,61.8,60.6,29.89,SW,221,0.0,0.0,96,0.00,,,0.00,Wunderground v.1.15,2013-08-02 06:53:00,
2013-08-02 02:58:00,61.6,60.4,29.89,SW,221,0.0,0.0,96,0.00,,,0.00,Wunderground v.1.15,2013-08-02 06:58:00,
2013-08-02 03:04:00,61.6,60.4,29.89,SW,221,0.0,0.0,96,0.00,,,0.00,Wunderground v.1.15,2013-08-02 07:04:00,
2013-08-02 03:10:00,61.5,60.3,29.89,SW,221,0.0,0.0,96,0.00,,,0.00,Wunderground v.1.15,2013-08-02 07:10:00,
2013-08-02 03:15:00,61.5,60.3,29.88,SW,221,0.0,0.0,96,0.00,,,0.00,Wunderground v.1.15,2013-08-02 07:15:00,
2013-08-02 03:22:00,61.3,60.2,29.88,SW,221,0.0,0.0,96,0.00,,,0.00,Wunderground v.1.15,2013-08-02 07:22:00,
2013-08-02 03:28:00,61.3,60.2,29.88,SW,221,0.0,0.0,96,0.00,,,0.00,Wunderground v.1.15,2013-08-02 07:28:00,
2013-08-02 03:33:00,61.2,60.1,29.89,SW,221,0.0,0.0,96,0.00,,,0.00,Wunderground v.1.15,2013-08-02 07:33:00,
2013-08-02 03:39:00,61.0,59.9,29.89,SW,221,0.0,0.0,96,0.00,,,0.00,Wunderground v.1.15,2013-08-02 07:39:00,
2013-08-02 03:44:00,60.9,59.8,29.89,SW,221,0.0,0.0,96,0.00,,,0.00,Wunderground v.1.15,2013-08-02 07:44:00,
2013-08-02 03:49:00,60.7,59.6,29.89,SW,221,0.0,0.0,96,0.00,,,0.00,Wunderground v.1.15,2013-08-02 07:49:00,
2013-08-02 03:55:00,60.5,59.4,29.89,SW,221,0.0,0.0,96,0.00,,,0.00,Wunderground v.1.15,2013-08-02 07:55:00,
2013-08-02 04:00:00,60.5,59.4,29.88,SW,221,0.0,0.0,96,0.00,,,0.00,Wunderground v.1.15,2013-08-02 08:00:00,
2013-08-02 04:06:00,60.7,59.8,29.88,SW,221,0.0,0.0,97,0.00,,,0.00,Wunderground v.1.15,2013-08-02 08:06:00,
2013-08-02 04:12:00,60.7,59.8,29.88,SW,221,0.0,0.0,97,0.00,,,0.00,Wunderground v.1.15,2013-08-02 08:12:00,
2013-08-02 04:18:00,60.9,60.0,29.89,SW,221,0.0,0.0,97,0.00,,,0.00,Wunderground v.1.15,2013-08-02 08:18:00,
2013-08-02 04:23:00,60.9,60.0,29.89,SW,221,0.0,0.0,97,0.00,,,0.00,Wunderground v.1.15,2013-08-02 08:23:00,
2013-08-02 04:28:00,60.9,60.0,29.89,SW,221,0.0,0.0,97,0.00,,,0.00,Wunderground v.1.15,2013-08-02 08:28:00,
2013-08-02 04:33:00,61.0,60.1,29.90,SW,221,0.0,0.0,97,0.00,,,0.00,Wunderground v.1.15,2013-08-02 08:33:00,
2013-08-02 04:39:00,61.0,60.1,29.90,SW,221,0.0,0.0,97,0.00,,,0.00,Wunderground v.1.15,2013-08-02 08:39:00,
2013-08-02 04:45:00,61.2,60.3,29.90,SW,221,0.0,0.0,97,0.00,,,0.00,Wunderground v.1.15,2013-08-02 08:45:00,
2013-08-02 04:50:00,61.2,60.3,29.90,SW,221,0.0,0.0,97,0.00,,,0.00,Wunderground v.1.15,2013-08-02 08:50:00,
2013-08-02 04:56:00,61.2,60.3,29.90,SW,221,0.0,0.0,97,0.00,,,0.00,Wunderground v.1.15,2013-08-02 08:56:00,
2013-08-02 05:01:00,61.2,60.3,29.90,SW,221,0.0,0.0,97,0.00,,,0.00,Wunderground v.1.15,2013-08-02 09:01:00,
2013-08-02 05:06:00,61.2,60.3,29.90,SW,221,0.0,1.0,97,0.00,,,0.00,Wunderground v.1.15,2013-08-02 09:06:00,
2013-08-02 05:12:00,61.2,60.3,29.90,SW,221,0.0,1.0,97,0.00,,,0.00,Wunderground v.1.15,2013-08-02 09:12:00,
2013-08-02 05:18:00,61.0,60.1,29.91,SW,221,0.0,1.0,97,0.00,,,0.00,Wunderground v.1.15,2013-08-02 09:18:00,
2013-08-02 05:24:00,61.2,60.6,29.91,SW,221,0.0,1.0,98,0.00,,,0.00,Wunderground v.1.15,2013-08-02 09:24:00,
2013-08-02 05:30:00,61.2,60.6,29.91,SW,221,0.0,1.0,98,0.00,,,0.00,Wunderground v.1.15,2013-08-02 09:30:00,
2013-08-02 05:36:00,61.2,60.6,29.91,SW,221,0.0,2.0,98,0.00,,,0.00,Wunderground v.1.15,2013-08-02 09:36:00,
2013-08-02 05:41:00,61.3,60.7,29.91,SW,221,0.0,2.0,98,0.00,,,0.00,Wunderground v.1.15,2013-08-02 09:41:00,
2013-08-02 05:46:00,61.3,60.7,29.91,SW,221,0.0,2.0,98,0.00,,,0.00,Wunderground v.1.15,2013-08-02 09:46:00,
2013-08-02 05:51:00,61.3,60.7,29.91,SW,221,0.0,2.0,98,0.00,,,0.00,Wunderground v.1.15,2013-08-02 09:51:00,
2013-08-02 05:57:00,61.3,60.7,29.91,SW,221,0.0,2.0,98,0.00,,,0.00,Wunderground v.1.15,2013-08-02 09:57:00,
2013-08-02 06:03:00,61.2,60.6,29.91,SW,221,0.0,0.0,98,0.00,,,0.00,Wunderground v.1.15,2013-08-02 10:03:00,
2013-08-02 06:09:00,61.3,60.7,29.91,SW,221,0.0,0.0,98,0.00,,,0.00,Wunderground v.1.15,2013-08-02 10:09:00,
2013-08-02 06:15:00,61.0,60.4,29.91,SW,221,0.0,0.0,98,0.00,,,0.00,Wunderground v.1.15,2013-08-02 10:15:00,
2013-08-02 06:20:00,60.9,60.0,29.91,SW,221,0.0,0.0,97,0.00,,,0.00,Wunderground v.1.15,2013-08-02 10:20:00,
2013-08-02 06:26:00,60.7,60.1,29.91,SW,221,0.0,0.0,98,0.00,,,0.00,Wunderground v.1.15,2013-08-02 10:26:00,
2013-08-02 06:31:00,60.7,60.1,29.91,SW,221,0.0,0.0,98,0.00,,,0.00,Wunderground v.1.15,2013-08-02 10:31:00,
2013-08-02 06:37:00,60.7,60.1,29.91,SW,221,0.0,0.0,98,0.00,,,0.00,Wunderground v.1.15,2013-08-02 10:37:00,
2013-08-02 06:42:00,60.7,60.1,29.91,SW,221,0.0,0.0,98,0.00,,,0.00,Wunderground v.1.15,2013-08-02 10:42:00,
2013-08-02 06:47:00,60.7,60.1,29.92,SW,221,0.0,0.0,98,0.00,,,0.00,Wunderground v.1.15,2013-08-02 10:47:00,
2013-08-02 06:53:00,60.7,60.1,29.92,SW,221,0.0,0.0,98,0.00,,,0.00,Wunderground v.1.15,2013-08-02 10:53:00,
2013-08-02 06:58:00,60.7,60.1,29.92,SW,221,0.0,0.0,98,0.00,,,0.00,Wunderground v.1.15,2013-08-02 10:58:00,
2013-08-02 07:03:00,60.7,60.1,29.92,SW,221,0.0,0.0,98,0.00,,,0.00,Wunderground v.1.15,2013-08-02 11:03:00,
2013-08-02 07:08:00,60.7,60.1,29.92,SW,221,0.0,0.0,98,0.00,,,0.00,Wunderground v.1.15,2013-08-02 11:08:00,
2013-08-02 07:14:00,60.5,59.9,29.92,SW,221,0.0,0.0,98,0.00,,,0.00,Wunderground v.1.15,2013-08-02 11:14:00,
2013-08-02 07:19:00,60.7,60.1,29.93,SW,221,0.0,0.0,98,0.00,,,0.00,Wunderground v.1.15,2013-08-02 11:19:00,
2013-08-02 07:25:00,60.7,60.1,29.93,SW,221,0.0,0.0,98,0.00,,,0.00,Wunderground v.1.15,2013-08-02 11:25:00,
2013-08-02 07:30:00,60.9,60.3,29.94,SW,221,0.0,0.0,98,0.00,,,0.00,Wunderground v.1.15,2013-08-02 11:30:00,
2013-08-02 07:36:00,60.9,60.3,29.94,SW,221,0.0,1.0,98,0.00,,,0.00,Wunderground v.1.15,2013-08-02 11:36:00,
2013-08-02 07:41:00,60.9,60.3,29.94,SW,221,0.0,1.0,98,0.00,,,0.00,Wunderground v.1.15,2013-08-02 11:41:00,
2013-08-02 07:46:00,60.7,60.1,29.94,SW,221,0.0,1.0,98,0.00,,,0.00,Wunderground v.1.15,2013-08-02 11:46:00,
2013-08-02 07:52:00,60.7,60.1,29.94,SW,221,0.0,1.0,98,0.00,,,0.00,Wunderground v.1.15,2013-08-02 11:52:00,
2013-08-02 07:57:00,60.7,60.1,29.94,SW,221,0.0,1.0,98,0.00,,,0.00,Wunderground v.1.15,2013-08-02 11:57:00,
2013-08-02 08:03:00,60.9,60.3,29.94,SW,221,0.0,1.0,98,0.00,,,0.00,Wunderground v.1.15,2013-08-02 12:03:00,
2013-08-02 08:09:00,61.2,60.6,29.94,SW,221,0.0,1.0,98,0.00,,,0.00,Wunderground v.1.15,2013-08-02 12:09:00,
2013-08-02 08:15:00,61.3,60.7,29.94,SW,221,0.0,1.0,98,0.00,,,0.00,Wunderground v.1.15,2013-08-02 12:15:00,
2013-08-02 08:22:00,61.6,61.0,29.94,SW,221,0.0,1.0,98,0.00,,,0.00,Wunderground v.1.15,2013-08-02 12:22:00,
2013-08-02 08:28:00,61.8,61.2,29.94,SW,221,0.0,1.0,98,0.00,,,0.00,Wunderground v.1.15,2013-08-02 12:28:00,
2013-08-02 08:33:00,62.0,61.4,29.94,SW,221,0.0,0.0,98,0.00,,,0.00,Wunderground v.1.15,2013-08-02 12:33:00,
2013-08-02 08:38:00,62.1,61.5,29.94,SW,221,0.0,0.0,98,0.00,,,0.00,Wunderground v.1.15,2013-08-02 12:38:00,
2013-08-02 08:43:00,62.4,61.8,29.94,SW,221,0.0,0.0,98,0.00,,,0.00,Wunderground v.1.15,2013-08-02 12:43:00,
2013-08-02 08:49:00,62.7,62.1,29.94,SW,221,0.0,0.0,98,0.00,,,0.00,Wunderground v.1.15,2013-08-02 12:49:00,
2013-08-02 08:55:00,62.9,62.3,29.94,SW,221,0.0,0.0,98,0.00,,,0.00,Wunderground v.1.15,2013-08-02 12:55:00,
2013-08-02 09:00:00,63.1,62.5,29.94,SW,221,0.0,0.0,98,0.00,,,0.00,Wunderground v.1.15,2013-08-02 13:00:00,
2013-08-02 09:05:00,63.2,62.6,29.94,SW,221,0.0,0.0,98,0.00,,,0.00,Wunderground v.1.15,2013-08-02 13:05:00,
2013-08-02 09:11:00,63.4,62.8,29.94,SW,221,0.0,0.0,98,0.00,,,0.00,Wunderground v.1.15,2013-08-02 13:11:00,
2013-08-02 09:16:00,63.4,62.8,29.95,SW,221,0.0,0.0,98,0.00,,,0.00,Wunderground v.1.15,2013-08-02 13:16:00,
2013-08-02 09:22:00,63.5,62.9,29.95,SW,221,0.0,0.0,98,0.00,,,0.00,Wunderground v.1.15,2013-08-02 13:22:00,
2013-08-02 09:28:00,63.7,63.1,29.95,SW,221,0.0,0.0,98,0.00,,,0.00,Wunderground v.1.15,2013-08-02 13:28:00,
2013-08-02 09:33:00,63.7,62.8,29.95,SW,221,0.0,0.0,97,0.00,,,0.00,Wunderground v.1.15,2013-08-02 13:33:00,
2013-08-02 09:39:00,64.2,63.3,29.95,SW,221,0.0,0.0,97,0.00,,,0.00,Wunderground v.1.15,2013-08-02 13:39:00,
2013-08-02 09:44:00,64.3,63.1,29.95,SW,232,0.0,0.0,96,0.00,,,0.00,Wunderground v.1.15,2013-08-02 13:44:00,
2013-08-02 09:50:00,64.5,63.0,29.96,SW,232,0.0,0.0,95,0.00,,,0.00,Wunderground v.1.15,2013-08-02 13:50:00,
2013-08-02 09:56:00,64.8,63.3,29.96,SW,232,0.0,0.0,95,0.00,,,0.00,Wunderground v.1.15,2013-08-02 13:56:00,
2013-08-02 10:01:00,65.2,63.1,29.95,SW,232,0.0,0.0,93,0.00,,,0.00,Wunderground v.1.15,2013-08-02 14:01:00,
2013-08-02 10:07:00,65.5,63.1,29.95,SW,232,0.0,1.0,92,0.00,,,0.00,Wunderground v.1.15,2013-08-02 14:07:00,
2013-08-02 10:12:00,66.0,63.3,29.95,SW,232,0.0,1.0,91,0.00,,,0.00,Wunderground v.1.15,2013-08-02 14:12:00,
2013-08-02 10:17:00,66.6,63.3,29.96,SW,232,0.0,1.0,89,0.00,,,0.00,Wunderground v.1.15,2013-08-02 14:17:00,
2013-08-02 10:23:00,67.1,63.1,29.96,SW,232,0.0,1.0,87,0.00,,,0.00,Wunderground v.1.15,2013-08-02 14:23:00,
2013-08-02 10:29:00,67.6,63.3,29.96,SW,232,0.0,1.0,86,0.00,,,0.00,Wunderground v.1.15,2013-08-02 14:29:00,
2013-08-02 10:34:00,67.9,63.2,29.96,SW,232,0.0,1.0,85,0.00,,,0.00,Wunderground v.1.15,2013-08-02 14:34:00,
2013-08-02 10:39:00,68.4,63.0,29.96,SW,232,0.0,2.0,83,0.00,,,0.00,Wunderground v.1.15,2013-08-02 14:39:00,
2013-08-02 10:45:00,68.8,64.4,29.96,SW,232,0.0,1.0,86,0.00,,,0.00,Wunderground v.1.15,2013-08-02 14:45:00,
2013-08-02 10:50:00,69.1,63.0,29.96,SW,232,0.0,1.0,81,0.00,,,0.00,Wunderground v.1.15,2013-08-02 14:50:00,
2013-08-02 10:55:00,69.4,63.3,29.96,SW,232,0.0,1.0,81,0.00,,,0.00,Wunderground v.1.15,2013-08-02 14:55:00,
2013-08-02 11:00:00,69.8,63.0,29.96,SW,232,0.0,1.0,79,0.00,,,0.00,Wunderground v.1.15,2013-08-02 15:00:00,
2013-08-02 11:06:00,70.3,62.0,29.96,SW,232,0.0,3.0,75,0.00,,,0.00,Wunderground v.1.15,2013-08-02 15:06:00,
2013-08-02 11:11:00,70.8,64.3,29.96,SW,232,0.0,3.0,80,0.00,,,0.00,Wunderground v.1.15,2013-08-02 15:11:00,
2013-08-02 11:16:00,71.3,62.2,29.96,SW,232,0.0,3.0,73,0.00,,,0.00,Wunderground v.1.15,2013-08-02 15:16:00,
2013-08-02 11:21:00,71.5,61.6,29.96,SW,232,0.0,3.0,71,0.00,,,0.00,Wunderground v.1.15,2013-08-02 15:21:00,
2013-08-02 11:27:00,71.8,62.7,29.96,SW,232,0.0,3.0,73,0.00,,,0.00,Wunderground v.1.15,2013-08-02 15:27:00,
2013-08-02 11:32:00,72.3,62.4,29.96,SW,232,0.0,3.0,71,0.00,,,0.00,Wunderground v.1.15,2013-08-02 15:32:00,
2013-08-02 11:37:00,72.8,62.8,29.96,SW,232,0.0,3.0,71,0.00,,,0.00,Wunderground v.1.15,2013-08-02 15:37:00,
2013-08-02 11:43:00,73.3,63.7,29.96,SW,232,0.0,3.0,72,0.00,,,0.00,Wunderground v.1.15,2013-08-02 15:43:00,
2013-08-02 11:49:00,73.3,61.7,29.95,SW,232,0.0,3.0,67,0.00,,,0.00,Wunderground v.1.15,2013-08-02 15:49:00,
2013-08-02 11:54:00,74.0,64.8,29.95,SW,232,0.0,3.0,73,0.00,,,0.00,Wunderground v.1.15,2013-08-02 15:54:00,
2013-08-02 12:00:00,73.9,62.2,29.95,SSW,204,0.0,3.0,67,0.00,,,0.00,Wunderground v.1.15,2013-08-02 16:00:00,
2013-08-02 12:06:00,74.2,64.2,29.95,SSW,204,0.0,3.0,71,0.00,,,0.00,Wunderground v.1.15,2013-08-02 16:06:00,
2013-08-02 12:12:00,75.1,63.8,29.95,SE,138,0.0,3.0,68,0.00,,,0.00,Wunderground v.1.15,2013-08-02 16:12:00,
2013-08-02 12:18:00,74.9,63.6,29.95,ENE,63,0.0,3.0,68,0.00,,,0.00,Wunderground v.1.15,2013-08-02 16:18:00,
2013-08-02 12:23:00,75.3,62.7,29.95,SSE,156,0.0,3.0,65,0.00,,,0.00,Wunderground v.1.15,2013-08-02 16:23:00,
2013-08-02 12:28:00,75.8,66.1,29.95,SSE,156,0.0,3.0,72,0.00,,,0.00,Wunderground v.1.15,2013-08-02 16:28:00,
2013-08-02 12:34:00,76.5,66.0,29.96,SSE,155,0.0,3.0,70,0.00,,,0.00,Wunderground v.1.15,2013-08-02 16:34:00,
2013-08-02 12:40:00,76.5,63.0,29.96,SSE,155,0.0,4.0,63,0.00,,,0.00,Wunderground v.1.15,2013-08-02 16:40:00,
2013-08-02 12:45:00,76.3,62.8,29.96,ESE,109,0.0,3.0,63,0.00,,,0.00,Wunderground v.1.15,2013-08-02 16:45:00,
2013-08-02 12:50:00,76.5,64.7,29.96,SSE,149,0.0,3.0,67,0.00,,,0.00,Wunderground v.1.15,2013-08-02 16:50:00,
2013-08-02 12:56:00,76.7,63.6,29.96,South,169,0.0,3.0,64,0.00,,,0.00,Wunderground v.1.15,2013-08-02 16:56:00,
2013-08-02 13:01:00,77.0,63.0,29.95,NE,55,1.0,3.0,62,0.00,,,0.00,Wunderground v.1.15,2013-08-02 17:01:00,
2013-08-02 13:06:00,76.7,63.2,29.95,NE,53,1.0,5.0,63,0.00,,,0.00,Wunderground v.1.15,2013-08-02 17:06:00,
2013-08-02 13:12:00,76.5,63.4,29.95,NE,50,2.0,2.0,64,0.00,,,0.00,Wunderground v.1.15,2013-08-02 17:12:00,
2013-08-02 13:17:00,77.0,63.9,29.95,SSE,155,1.0,5.0,64,0.00,,,0.00,Wunderground v.1.15,2013-08-02 17:17:00,
2013-08-02 13:22:00,77.4,64.7,29.95,NE,42,1.0,1.0,65,0.00,,,0.00,Wunderground v.1.15,2013-08-02 17:22:00,
2013-08-02 13:28:00,77.6,64.9,29.95,NE,42,0.0,5.0,65,0.00,,,0.00,Wunderground v.1.15,2013-08-02 17:28:00,
2013-08-02 13:33:00,77.4,64.7,29.95,NE,39,0.0,6.0,65,0.00,,,0.00,Wunderground v.1.15,2013-08-02 17:33:00,
2013-08-02 13:38:00,77.0,63.9,29.95,NE,39,0.0,6.0,64,0.00,,,0.00,Wunderground v.1.15,2013-08-02 17:38:00,
2013-08-02 13:43:00,76.5,63.9,29.95,WNW,295,0.0,6.0,65,0.00,,,0.00,Wunderground v.1.15,2013-08-02 17:43:00,
2013-08-02 13:49:00,76.8,65.4,29.94,SW,216,0.0,6.0,68,0.00,,,0.00,Wunderground v.1.15,2013-08-02 17:49:00,
2013-08-02 13:54:00,77.7,64.5,29.94,NE,48,0.0,6.0,64,0.00,,,0.00,Wunderground v.1.15,2013-08-02 17:54:00,
2013-08-02 13:59:00,77.9,63.4,29.94,NE,53,1.0,6.0,61,0.00,,,0.00,Wunderground v.1.15,2013-08-02 17:59:00,
2013-08-02 14:04:00,77.4,64.3,29.94,SSE,157,2.0,6.0,64,0.00,,,0.00,Wunderground v.1.15,2013-08-02 18:04:00,
2013-08-02 14:10:00,77.9,63.8,29.94,SSE,161,1.0,6.0,62,0.00,,,0.00,Wunderground v.1.15,2013-08-02 18:10:00,
2013-08-02 14:15:00,78.3,63.7,29.94,SSE,161,1.0,6.0,61,0.00,,,0.00,Wunderground v.1.15,2013-08-02 18:15:00,
2013-08-02 14:20:00,78.5,63.9,29.94,NE,52,1.0,6.0,61,0.00,,,0.00,Wunderground v.1.15,2013-08-02 18:20:00,
2013-08-02 14:26:00,79.6,64.5,29.94,SSW,196,0.0,6.0,60,0.00,,,0.00,Wunderground v.1.15,2013-08-02 18:26:00,
2013-08-02 14:32:00,79.9,65.2,29.94,WSW,243,1.0,1.0,61,0.00,,,0.00,Wunderground v.1.15,2013-08-02 18:32:00,
2013-08-02 14:37:00,79.4,64.8,29.94,WSW,245,1.0,7.0,61,0.00,,,0.00,Wunderground v.1.15,2013-08-02 18:37:00,
2013-08-02 14:43:00,79.4,62.3,29.94,NNE,24,0.0,7.0,56,0.00,,,0.00,Wunderground v.1.15,2013-08-02 18:43:00,
2013-08-02 14:49:00,79.2,62.1,29.93,NE,35,0.0,7.0,56,0.00,,,0.00,Wunderground v.1.15,2013-08-02 18:49:00,
2013-08-02 14:54:00,79.4,63.8,29.93,NE,35,0.0,7.0,59,0.00,,,0.00,Wunderground v.1.15,2013-08-02 18:54:00,
2013-08-02 14:59:00,79.4,64.3,29.93,NE,45,0.0,7.0,60,0.00,,,0.00,Wunderground v.1.15,2013-08-02 18:59:00,
2013-08-02 15:05:00,79.4,64.8,29.93,SSE,153,1.0,4.0,61,0.00,,,0.00,Wunderground v.1.15,2013-08-02 19:05:00,
2013-08-02 15:10:00,79.4,65.2,29.93,NE,44,1.0,4.0,62,0.00,,,0.00,Wunderground v.1.15,2013-08-02 19:10:00,
2013-08-02 15:16:00,79.2,64.6,29.92,NE,49,1.0,4.0,61,0.00,,,0.00,Wunderground v.1.15,2013-08-02 19:16:00,
2013-08-02 15:22:00,79.2,65.5,29.92,SSE,155,1.0,1.0,63,0.00,,,0.00,Wunderground v.1.15,2013-08-02 19:22:00,
2013-08-02 15:28:00,79.6,64.0,29.92,East,93,0.0,4.0,59,0.00,,,0.00,Wunderground v.1.15,2013-08-02 19:28:00,
2013-08-02 15:34:00,79.8,63.2,29.92,East,94,0.0,7.0,57,0.00,,,0.00,Wunderground v.1.15,2013-08-02 19:34:00,
2013-08-02 15:40:00,80.1,64.5,29.92,SE,142,0.0,7.0,59,0.00,,,0.00,Wunderground v.1.15,2013-08-02 19:40:00,
2013-08-02 15:47:00,80.1,62.5,29.92,SSE,157,0.0,7.0,55,0.00,,,0.00,Wunderground v.1.15,2013-08-02 19:47:00,
2013-08-02 15:52:00,80.3,64.7,29.92,SSE,157,0.0,7.0,59,0.00,,,0.00,Wunderground v.1.15,2013-08-02 19:52:00,
2013-08-02 15:58:00,80.3,64.2,29.92,SSE,157,0.0,7.0,58,0.00,,,0.00,Wunderground v.1.15,2013-08-02 19:58:00,
2013-08-02 16:03:00,80.3,63.7,29.92,SSE,157,0.0,4.0,57,0.00,,,0.00,Wunderground v.1.15,2013-08-02 20:03:00,
2013-08-02 16:08:00,79.4,64.3,29.92,SSE,157,0.0,4.0,60,0.00,,,0.00,Wunderground v.1.15,2013-08-02 20:08:00,
2013-08-02 16:13:00,79.0,65.3,29.92,SSE,157,0.0,4.0,63,0.00,,,0.00,Wunderground v.1.15,2013-08-02 20:13:00,
2013-08-02 16:19:00,78.8,64.7,29.92,SSE,150,0.0,4.0,62,0.00,,,0.00,Wunderground v.1.15,2013-08-02 20:19:00,
2013-08-02 16:25:00,79.0,64.4,29.92,SE,128,0.0,4.0,61,0.00,,,0.00,Wunderground v.1.15,2013-08-02 20:25:00,
2013-08-02 16:30:00,79.0,65.8,29.92,ENE,60,0.0,4.0,64,0.00,,,0.00,Wunderground v.1.15,2013-08-02 20:30:00,
2013-08-02 16:36:00,79.2,65.1,29.92,ENE,60,0.0,2.0,62,0.00,,,0.00,Wunderground v.1.15,2013-08-02 20:36:00,
2013-08-02 16:42:00,79.4,65.7,29.92,ENE,60,0.0,2.0,63,0.00,,,0.00,Wunderground v.1.15,2013-08-02 20:42:00,
2013-08-02 16:47:00,79.2,66.0,29.92,ENE,60,0.0,2.0,64,0.00,,,0.00,Wunderground v.1.15,2013-08-02 20:47:00,
2013-08-02 16:53:00,79.2,66.0,29.92,ENE,60,0.0,2.0,64,0.00,,,0.00,Wunderground v.1.15,2013-08-02 20:53:00,
2013-08-02 16:58:00,79.4,66.2,29.92,ENE,60,0.0,2.0,64,0.00,,,0.00,Wunderground v.1.15,2013-08-02 20:58:00,
2013-08-02 17:04:00,79.8,66.5,29.91,ENE,60,0.0,3.0,64,0.00,,,0.00,Wunderground v.1.15,2013-08-02 21:04:00,
2013-08-02 17:09:00,79.6,65.4,29.91,ENE,60,0.0,3.0,62,0.00,,,0.00,Wunderground v.1.15,2013-08-02 21:09:00,
2013-08-02 17:15:00,79.2,66.9,29.92,ENE,60,0.0,3.0,66,0.00,,,0.00,Wunderground v.1.15,2013-08-02 21:15:00,
2013-08-02 17:20:00,79.2,66.0,29.92,ENE,60,0.0,3.0,64,0.00,,,0.00,Wunderground v.1.15,2013-08-02 21:20:00,
2013-08-02 17:26:00,79.4,66.2,29.92,ENE,60,0.0,3.0,64,0.00,,,0.00,Wunderground v.1.15,2013-08-02 21:26:00,
2013-08-02 17:32:00,79.6,65.9,29.91,ENE,60,0.0,3.0,63,0.00,,,0.00,Wunderground v.1.15,2013-08-02 21:32:00,
2013-08-02 17:38:00,79.9,65.2,29.91,ENE,60,0.0,3.0,61,0.00,,,0.00,Wunderground v.1.15,2013-08-02 21:38:00,
2013-08-02 17:40:00,79.9,65.2,29.91,ENE,60,0.0,3.0,61,0.00,,,0.00,Wunderground v.1.15,2013-08-02 21:40:00,
2013-08-02 17:45:00,79.9,65.7,29.91,ENE,60,0.0,3.0,62,0.00,,,0.00,Wunderground v.1.15,2013-08-02 21:45:00,
2013-08-02 17:51:00,79.8,66.5,29.91,ENE,60,0.0,3.0,64,0.00,,,0.00,Wunderground v.1.15,2013-08-02 21:51:00,
2013-08-02 17:57:00,79.2,66.0,29.91,ENE,60,0.0,3.0,64,0.00,,,0.00,Wunderground v.1.15,2013-08-02 21:57:00,
2013-08-02 18:02:00,79.0,65.8,29.91,ENE,60,0.0,1.0,64,0.00,,,0.00,Wunderground v.1.15,2013-08-02 22:02:00,
2013-08-02 18:08:00,78.6,66.3,29.91,ENE,60,0.0,1.0,66,0.00,,,0.00,Wunderground v.1.15,2013-08-02 22:08:00,
2013-08-02 18:14:00,77.9,66.1,29.91,ENE,60,0.0,1.0,67,0.00,,,0.00,Wunderground v.1.15,2013-08-02 22:14:00,
2013-08-02 18:19:00,77.6,65.3,29.91,ENE,60,0.0,1.0,66,0.00,,,0.00,Wunderground v.1.15,2013-08-02 22:19:00,
2013-08-02 18:25:00,76.7,65.3,29.91,ENE,60,0.0,1.0,68,0.00,,,0.00,Wunderground v.1.15,2013-08-02 22:25:00,
2013-08-02 18:31:00,76.0,65.5,29.91,ENE,60,0.0,1.0,70,0.00,,,0.00,Wunderground v.1.15,2013-08-02 22:31:00,
2013-08-02 18:37:00,75.6,65.5,29.91,ENE,60,0.0,1.0,71,0.00,,,0.00,Wunderground v.1.15,2013-08-02 22:37:00,
2013-08-02 18:42:00,75.3,66.0,29.91,ENE,60,0.0,1.0,73,0.00,,,0.00,Wunderground v.1.15,2013-08-02 22:42:00,
2013-08-02 18:47:00,74.9,65.3,29.90,ENE,60,0.0,1.0,72,0.00,,,0.00,Wunderground v.1.15,2013-08-02 22:47:00,
2013-08-02 18:53:00,74.6,65.0,29.90,ENE,60,0.0,1.0,72,0.00,,,0.00,Wunderground v.1.15,2013-08-02 22:53:00,
2013-08-02 18:59:00,74.4,66.0,29.90,ENE,60,0.0,1.0,75,0.00,,,0.00,Wunderground v.1.15,2013-08-02 22:59:00,
2013-08-02 19:05:00,74.0,65.2,29.91,ENE,60,0.0,0.0,74,0.00,,,0.00,Wunderground v.1.15,2013-08-02 23:05:00,
2013-08-02 19:11:00,73.9,64.7,29.91,ENE,60,0.0,0.0,73,0.00,,,0.00,Wunderground v.1.15,2013-08-02 23:11:00,
2013-08-02 19:16:00,73.7,64.5,29.91,ENE,60,0.0,0.0,73,0.00,,,0.00,Wunderground v.1.15,2013-08-02 23:16:00,
2013-08-02 19:21:00,73.7,64.9,29.91,ENE,60,0.0,0.0,74,0.00,,,0.00,Wunderground v.1.15,2013-08-02 23:21:00,
2013-08-02 19:26:00,73.5,65.1,29.91,ENE,60,0.0,0.0,75,0.00,,,0.00,Wunderground v.1.15,2013-08-02 23:26:00,
2013-08-02 19:32:00,73.3,64.9,29.92,ENE,60,0.0,0.0,75,0.00,,,0.00,Wunderground v.1.15,2013-08-02 23:32:00,
2013-08-02 19:37:00,73.2,65.2,29.92,ENE,60,0.0,0.0,76,0.00,,,0.00,Wunderground v.1.15,2013-08-02 23:37:00,
2013-08-02 19:42:00,73.0,65.4,29.92,ENE,60,0.0,0.0,77,0.00,,,0.00,Wunderground v.1.15,2013-08-02 23:42:00,
2013-08-02 19:48:00,73.0,65.7,29.91,ENE,60,0.0,0.0,78,0.00,,,0.00,Wunderground v.1.15,2013-08-02 23:48:00,
2013-08-02 19:53:00,72.8,65.9,29.91,ENE,60,0.0,0.0,79,0.00,,,0.00,Wunderground v.1.15,2013-08-02 23:53:00,
2013-08-02 19:59:00,72.7,65.8,29.91,ENE,60,0.0,0.0,79,0.00,,,0.00,Wunderground v.1.15,2013-08-02 23:59:00,
2013-08-02 20:05:00,72.5,66.0,29.92,ENE,60,0.0,0.0,80,0.00,,,0.00,Wunderground v.1.15,2013-08-03 00:05:00,
2013-08-02 20:10:00,72.3,66.1,29.92,ENE,60,0.0,0.0,81,0.00,,,0.00,Wunderground v.1.15,2013-08-03 00:10:00,
2013-08-02 20:16:00,72.1,65.9,29.93,ENE,60,0.0,0.0,81,0.00,,,0.00,Wunderground v.1.15,2013-08-03 00:16:00,
2013-08-02 20:21:00,71.8,64.9,29.93,ENE,60,0.0,0.0,79,0.00,,,0.00,Wunderground v.1.15,2013-08-03 00:21:00,
2013-08-02 20:27:00,71.5,65.0,29.93,ENE,60,0.0,0.0,80,0.00,,,0.00,Wunderground v.1.15,2013-08-03 00:27:00,
2013-08-02 20:32:00,71.3,65.2,29.93,ENE,60,0.0,0.0,81,0.00,,,0.00,Wunderground v.1.15,2013-08-03 00:32:00,
2013-08-02 20:37:00,71.1,65.0,29.93,ENE,60,0.0,0.0,81,0.00,,,0.00,Wunderground v.1.15,2013-08-03 00:37:00,
2013-08-02 20:43:00,70.8,65.0,29.93,ENE,60,0.0,0.0,82,0.00,,,0.00,Wunderground v.1.15,2013-08-03 00:43:00,
2013-08-02 20:48:00,70.4,64.6,29.93,ENE,60,0.0,0.0,82,0.00,,,0.00,Wunderground v.1.15,2013-08-03 00:48:00,
2013-08-02 20:53:00,70.3,64.9,29.93,ENE,60,0.0,0.0,83,0.00,,,0.00,Wunderground v.1.15,2013-08-03 00:53:00,
2013-08-02 20:58:00,69.9,64.8,29.93,ENE,60,0.0,0.0,84,0.00,,,0.00,Wunderground v.1.15,2013-08-03 00:58:00,
2013-08-02 21:04:00,69.9,64.8,29.93,ENE,60,0.0,0.0,84,0.00,,,0.00,Wunderground v.1.15,2013-08-03 01:04:00,
2013-08-02 21:09:00,69.8,65.1,29.93,ENE,60,0.0,0.0,85,0.00,,,0.00,Wunderground v.1.15,2013-08-03 01:09:00,
2013-08-02 21:15:00,69.6,64.9,29.93,ENE,60,0.0,0.0,85,0.00,,,0.00,Wunderground v.1.15,2013-08-03 01:15:00,
2013-08-02 21:20:00,69.4,64.7,29.94,ENE,60,0.0,0.0,85,0.00,,,0.00,Wunderground v.1.15,2013-08-03 01:20:00,
2013-08-02 21:26:00,69.4,65.0,29.94,ENE,60,0.0,0.0,86,0.00,,,0.00,Wunderground v.1.15,2013-08-03 01:26:00,
2013-08-02 21:31:00,69.3,64.9,29.95,ENE,60,0.0,0.0,86,0.00,,,0.00,Wunderground v.1.15,2013-08-03 01:31:00,
2013-08-02 21:36:00,69.3,64.9,29.95,ENE,60,0.0,0.0,86,0.00,,,0.00,Wunderground v.1.15,2013-08-03 01:36:00,
2013-08-02 21:42:00,69.3,64.9,29.95,ENE,60,0.0,0.0,86,0.00,,,0.00,Wunderground v.1.15,2013-08-03 01:42:00,
2013-08-02 21:47:00,69.1,64.7,29.95,ENE,60,0.0,0.0,86,0.00,,,0.00,Wunderground v.1.15,2013-08-03 01:47:00,
2013-08-02 21:53:00,68.9,64.5,29.95,ENE,60,0.0,0.0,86,0.00,,,0.00,Wunderground v.1.15,2013-08-03 01:53:00,
2013-08-02 21:58:00,68.9,64.5,29.95,ENE,60,0.0,0.0,86,0.00,,,0.00,Wunderground v.1.15,2013-08-03 01:58:00,
2013-08-02 22:04:00,68.8,64.4,29.95,ENE,60,0.0,0.0,86,0.00,,,0.00,Wunderground v.1.15,2013-08-03 02:04:00,
2013-08-02 22:09:00,68.8,64.8,29.95,ENE,60,0.0,0.0,87,0.00,,,0.00,Wunderground v.1.15,2013-08-03 02:09:00,
2013-08-02 22:15:00,68.6,64.6,29.95,ENE,60,0.0,0.0,87,0.00,,,0.00,Wunderground v.1.15,2013-08-03 02:15:00,
2013-08-02 22:20:00,68.4,64.4,29.95,ENE,60,0.0,0.0,87,0.00,,,0.00,Wunderground v.1.15,2013-08-03 02:20:00,
2013-08-02 22:26:00,68.4,64.7,29.95,ENE,60,0.0,0.0,88,0.00,,,0.00,Wunderground v.1.15,2013-08-03 02:26:00,
2013-08-02 22:31:00,68.4,65.0,29.96,ENE,60,0.0,0.0,89,0.00,,,0.00,Wunderground v.1.15,2013-08-03 02:31:00,
2013-08-02 22:37:00,68.1,64.4,29.96,ENE,60,0.0,0.0,88,0.00,,,0.00,Wunderground v.1.15,2013-08-03 02:37:00,
2013-08-02 22:42:00,67.9,64.2,29.96,ENE,60,0.0,0.0,88,0.00,,,0.00,Wunderground v.1.15,2013-08-03 02:42:00,
2013-08-02 22:47:00,67.9,64.5,29.95,ENE,60,0.0,0.0,89,0.00,,,0.00,Wunderground v.1.15,2013-08-03 02:47:00,
2013-08-02 22:53:00,67.9,64.5,29.95,ENE,60,0.0,0.0,89,0.00,,,0.00,Wunderground v.1.15,2013-08-03 02:53:00,
2013-08-02 22:58:00,67.8,64.4,29.95,ENE,60,0.0,0.0,89,0.00,,,0.00,Wunderground v.1.15,2013-08-03 02:58:00,
2013-08-02 23:04:00,67.6,64.2,29.95,ENE,60,0.0,0.0,89,0.00,,,0.00,Wunderground v.1.15,2013-08-03 03:04:00,
2013-08-02 23:09:00,67.3,64.3,29.95,ENE,60,0.0,0.0,90,0.00,,,0.00,Wunderground v.1.15,2013-08-03 03:09:00,
2013-08-02 23:15:00,67.3,64.6,29.96,ENE,60,0.0,0.0,91,0.00,,,0.00,Wunderground v.1.15,2013-08-03 03:15:00,
2013-08-02 23:22:00,67.1,64.4,29.96,ENE,60,0.0,0.0,91,0.00,,,0.00,Wunderground v.1.15,2013-08-03 03:22:00,
2013-08-02 23:27:00,66.9,64.2,29.96,ENE,60,0.0,0.0,91,0.00,,,0.00,Wunderground v.1.15,2013-08-03 03:27:00,
2013-08-02 23:33:00,66.8,64.1,29.96,ENE,60,0.0,0.0,91,0.00,,,0.00,Wunderground v.1.15,2013-08-03 03:33:00,
2013-08-02 23:38:00,66.6,63.9,29.96,ENE,60,0.0,0.0,91,0.00,,,0.00,Wunderground v.1.15,2013-08-03 03:38:00,
2013-08-02 23:43:00,66.6,63.9,29.96,ENE,60,0.0,0.0,91,0.00,,,0.00,Wunderground v.1.15,2013-08-03 03:43:00,
2013-08-02 23:49:00,66.4,64.0,29.97,ENE,60,0.0,0.0,92,0.00,,,0.00,Wunderground v.1.15,2013-08-03 03:49:00,
2013-08-02 23:55:00,66.3,63.9,29.97,ENE,60,0.0,0.0,92,0.00,,,0.00,Wunderground v.1.15,2013-08-03 03:55:00,